Time;durP1;ratioP1;P1;durP2;ratioP2;P2;SDS_P1;SDS_P2;PMS_P1;PMS_P2;Temp;Humidity;BMP_temperature;BMP_pressure;BME280_temperature;BME280_humidity;BME280_pressure;Samples;Min_cycle;Max_cycle;Signal;HPM_P1;HPM_P2
2022/12/28 00:00:14;;;;;;;30.40;16.47;;;;;;;;;;5092649;28;20458;-72
2022/12/28 00:02:41;;;;;;;37.43;19.97;;;;;;;;;;5093226;28;20955;-72
2022/12/28 00:05:08;;;;;;;28.27;18.00;;;;;;;;;;5092434;28;20837;-72
2022/12/28 00:07:35;;;;;;;38.93;17.67;;;;;;;;;;5093238;28;20853;-72
2022/12/28 00:10:04;;;;;;;29.90;16.80;;;;;;;;;;5093078;28;20449;-71
2022/12/28 00:12:31;;;;;;;30.20;16.57;;;;;;;;;;5090288;28;20450;-70
2022/12/28 00:14:59;;;;;;;33.37;18.37;;;;;;;;;;5092314;28;20454;-71
2022/12/28 00:17:26;;;;;;;27.30;16.17;;;;;;;;;;5091032;28;20466;-72
2022/12/28 00:19:53;;;;;;;27.77;17.10;;;;;;;;;;5092783;28;20450;-72
2022/12/28 00:22:20;;;;;;;31.23;16.10;;;;;;;;;;5092935;28;20454;-72
2022/12/28 00:24:47;;;;;;;25.97;14.47;;;;;;;;;;5092337;28;20902;-71
2022/12/28 00:27:15;;;;;;;25.60;13.73;;;;;;;;;;5092832;28;20450;-72
2022/12/28 00:29:42;;;;;;;26.80;14.33;;;;;;;;;;5092502;28;20455;-71
2022/12/28 00:32:09;;;;;;;28.87;16.20;;;;;;;;;;5093008;28;20443;-72
2022/12/28 00:34:37;;;;;;;27.67;15.93;;;;;;;;;;5092073;28;20958;-72
2022/12/28 00:37:04;;;;;;;28.10;14.23;;;;;;;;;;5093017;28;20804;-71
2022/12/28 00:39:31;;;;;;;26.80;13.97;;;;;;;;;;5092949;28;20450;-70
2022/12/28 00:41:58;;;;;;;26.10;12.13;;;;;;;;;;5092747;28;20450;-71
2022/12/28 00:44:26;;;;;;;21.10;11.73;;;;;;;;;;5092336;28;20486;-71
2022/12/28 00:46:53;;;;;;;18.33;11.67;;;;;;;;;;5090592;28;20450;-72
2022/12/28 00:49:20;;;;;;;19.60;12.67;;;;;;;;;;5092771;28;20466;-72
2022/12/28 00:51:47;;;;;;;25.53;14.40;;;;;;;;;;5090887;28;20451;-72
2022/12/28 00:54:15;;;;;;;22.77;11.70;;;;;;;;;;5092327;28;20453;-71
2022/12/28 00:56:42;;;;;;;23.67;15.00;;;;;;;;;;5096081;28;20461;-71
2022/12/28 00:59:10;;;;;;;25.20;12.97;;;;;;;;;;5096799;28;20475;-71
2022/12/28 01:01:38;;;;;;;19.13;12.17;;;;;;;;;;5096693;28;20446;-71
2022/12/28 01:04:05;;;;;;;21.10;12.33;;;;;;;;;;5095898;28;21030;-71
2022/12/28 01:06:32;;;;;;;17.43;10.47;;;;;;;;;;5096520;28;20454;-71
2022/12/28 01:09:00;;;;;;;21.10;13.03;;;;;;;;;;5096316;28;20493;-71
2022/12/28 01:11:28;;;;;;;21.07;13.63;;;;;;;;;;5096413;28;20450;-71
2022/12/28 01:13:56;;;;;;;16.67;10.80;;;;;;;;;;5093054;28;20462;-72
2022/12/28 01:16:25;;;;;;;18.60;12.23;;;;;;;;;;5095438;28;20455;-71
2022/12/28 01:18:55;;;;;;;22.10;13.97;;;;;;;;;;5095526;28;20474;-71
2022/12/28 01:21:24;;;;;;;22.70;14.73;;;;;;;;;;5096165;28;20455;-71
2022/12/28 01:23:53;;;;;;;22.80;13.10;;;;;;;;;;5093546;28;20489;-71
2022/12/28 01:26:21;;;;;;;25.40;12.23;;;;;;;;;;5095887;28;20443;-71
2022/12/28 01:28:48;;;;;;;18.53;12.63;;;;;;;;;;5093975;28;20993;-71
2022/12/28 01:31:16;;;;;;;17.80;12.50;;;;;;;;;;5096127;28;20454;-71
2022/12/28 01:33:43;;;;;;;18.60;12.80;;;;;;;;;;5095441;28;20450;-71
2022/12/28 01:36:13;;;;;;;19.33;12.87;;;;;;;;;;5096106;28;20458;-71
2022/12/28 01:38:40;;;;;;;16.83;10.77;;;;;;;;;;5095016;28;20473;-72
2022/12/28 01:41:08;;;;;;;18.67;10.20;;;;;;;;;;5095983;28;20458;-71
2022/12/28 01:43:40;;;;;;;15.87;10.67;;;;;;;;;;5094764;28;20970;-71
2022/12/28 01:46:08;;;;;;;14.90;10.27;;;;;;;;;;5095875;28;20479;-71
2022/12/28 01:48:36;;;;;;;11.47;9.33;;;;;;;;;;5095527;28;20551;-70
2022/12/28 01:51:04;;;;;;;13.80;8.60;;;;;;;;;;5095187;28;20462;-72
2022/12/28 01:53:33;;;;;;;14.93;11.60;;;;;;;;;;5095024;28;20454;-72
2022/12/28 01:56:00;;;;;;;16.13;10.43;;;;;;;;;;5095421;28;20443;-72
2022/12/28 01:58:29;;;;;;;13.43;9.77;;;;;;;;;;5093582;28;20471;-71
2022/12/28 02:00:57;;;;;;;14.00;9.80;;;;;;;;;;5095027;28;20455;-71
2022/12/28 02:03:26;;;;;;;13.97;10.47;;;;;;;;;;5093376;28;20453;-72
2022/12/28 02:05:54;;;;;;;15.37;10.77;;;;;;;;;;5094675;28;20487;-72
2022/12/28 02:08:24;;;;;;;17.77;9.60;;;;;;;;;;5093722;28;20478;-71
2022/12/28 02:10:53;;;;;;;23.17;14.50;;;;;;;;;;5095375;28;20451;-71
2022/12/28 02:13:21;;;;;;;14.97;10.00;;;;;;;;;;5093032;28;20443;-71
2022/12/28 02:15:48;;;;;;;15.10;9.67;;;;;;;;;;5094691;28;21082;-71
2022/12/28 02:18:16;;;;;;;11.47;8.73;;;;;;;;;;5095027;28;20477;-71
2022/12/28 02:20:51;;;;;;;10.87;8.00;;;;;;;;;;5094754;28;20462;-71
2022/12/28 02:23:27;;;;;;;13.20;8.60;;;;;;;;;;5094884;28;20450;-71
2022/12/28 02:26:27;;;;;;;12.00;8.27;;;;;;;;;;5094857;28;20489;-71
2022/12/28 02:29:09;;;;;;;14.03;8.03;;;;;;;;;;5032066;28;20498;-71
2022/12/28 02:31:40;;;;;;;13.60;9.37;;;;;;;;;;5032067;28;20820;-72
2022/12/28 02:34:11;;;;;;;11.63;8.87;;;;;;;;;;5065793;28;20450;-71
2022/12/28 02:36:42;;;;;;;15.07;10.30;;;;;;;;;;5093760;28;20450;-72
2022/12/28 02:39:11;;;;;;;14.30;11.07;;;;;;;;;;5093673;28;20474;-71
2022/12/28 02:41:40;;;;;;;15.90;9.77;;;;;;;;;;5094356;28;20850;-71
2022/12/28 02:44:09;;;;;;;13.50;9.67;;;;;;;;;;5093668;28;20492;-71
2022/12/28 02:52:18;;;;;;;15.87;10.57;;;;;;;;;;5094164;28;20789;-71
2022/12/28 02:57:47;;;;;;;13.53;8.87;;;;;;;;;;5094160;28;20450;-71
2022/12/28 03:00:17;;;;;;;10.33;8.30;;;;;;;;;;5094207;28;20847;-72
2022/12/28 03:02:53;;;;;;;12.27;9.30;;;;;;;;;;5094133;28;20862;-71
2022/12/28 03:08:13;;;;;;;12.93;7.87;;;;;;;;;;5093303;28;20917;-71
2022/12/28 03:08:18;;;;;;;11.23;8.23;;;;;;;;;;5091750;28;20554;-71
2022/12/28 03:10:46;;;;;;;12.30;8.33;;;;;;;;;;5093834;28;20529;-72
2022/12/28 03:16:01;;;;;;;15.03;8.90;;;;;;;;;;5093269;28;20431;-70
2022/12/28 03:32:19;;;;;;;14.20;8.30;;;;;;;;;;5093737;28;20415;-70
2022/12/28 03:34:46;;;;;;;11.60;8.33;;;;;;;;;;5092967;28;20858;-71
2022/12/28 03:37:16;;;;;;;15.20;9.17;;;;;;;;;;5093509;28;20815;-71
2022/12/28 03:39:48;;;;;;;12.93;7.03;;;;;;;;;;5093309;28;20931;-72
2022/12/28 03:45:06;;;;;;;12.50;7.60;;;;;;;;;;5093255;28;20559;-69
2022/12/28 03:47:35;;;;;;;11.20;8.30;;;;;;;;;;5091976;28;20475;-71
2022/12/28 03:50:03;;;;;;;12.37;8.00;;;;;;;;;;5094336;28;20457;-72
2022/12/28 03:52:32;;;;;;;11.57;7.70;;;;;;;;;;5094141;28;20454;-71
2022/12/28 03:54:59;;;;;;;12.77;8.07;;;;;;;;;;5093572;28;20451;-70
2022/12/28 03:57:26;;;;;;;13.67;6.90;;;;;;;;;;5094311;28;20852;-70
2022/12/28 03:59:53;;;;;;;10.33;7.77;;;;;;;;;;5093997;28;20458;-71
2022/12/28 04:02:20;;;;;;;8.87;6.33;;;;;;;;;;5094477;28;20447;-70
2022/12/28 04:04:48;;;;;;;8.77;6.90;;;;;;;;;;5093175;28;20995;-71
2022/12/28 04:07:16;;;;;;;10.83;7.47;;;;;;;;;;5093718;28;20447;-71
2022/12/28 04:09:43;;;;;;;12.47;7.53;;;;;;;;;;5092931;28;20443;-72
2022/12/28 04:12:11;;;;;;;12.17;8.30;;;;;;;;;;5090505;28;20462;-71
2022/12/28 04:14:38;;;;;;;12.40;8.57;;;;;;;;;;5092512;28;20975;-71
2022/12/28 04:17:05;;;;;;;14.53;8.20;;;;;;;;;;5091397;28;20454;-71
2022/12/28 04:19:32;;;;;;;13.07;8.53;;;;;;;;;;5093418;28;20459;-71
2022/12/28 04:22:00;;;;;;;17.00;9.13;;;;;;;;;;5090931;28;20863;-70
2022/12/28 04:24:27;;;;;;;12.77;8.57;;;;;;;;;;5093417;28;20450;-71
2022/12/28 04:26:55;;;;;;;11.13;6.50;;;;;;;;;;5093967;28;20454;-70
2022/12/28 04:29:22;;;;;;;8.40;6.40;;;;;;;;;;5094250;28;20467;-70
2022/12/28 04:31:49;;;;;;;6.77;6.07;;;;;;;;;;5097433;28;20523;-72
2022/12/28 04:34:16;;;;;;;10.00;6.57;;;;;;;;;;5096812;28;20451;-71
2022/12/28 04:36:43;;;;;;;8.20;6.30;;;;;;;;;;5098103;28;20817;-71
2022/12/28 04:39:11;;;;;;;6.80;4.80;;;;;;;;;;5097841;28;20483;-70
2022/12/28 04:41:39;;;;;;;8.30;5.67;;;;;;;;;;5097770;28;20461;-70
2022/12/28 04:44:07;;;;;;;10.20;6.90;;;;;;;;;;5096610;28;20509;-71
2022/12/28 04:46:34;;;;;;;10.30;6.07;;;;;;;;;;5097439;28;20862;-71
2022/12/28 04:49:01;;;;;;;7.57;5.03;;;;;;;;;;5097270;28;20466;-70
2022/12/28 04:51:29;;;;;;;7.37;6.43;;;;;;;;;;5098317;28;20454;-70
2022/12/28 04:53:57;;;;;;;6.73;5.00;;;;;;;;;;5096115;28;20454;-71
2022/12/28 04:56:26;;;;;;;6.63;5.07;;;;;;;;;;5097493;28;20998;-71
2022/12/28 04:58:54;;;;;;;12.90;7.03;;;;;;;;;;5095187;28;20470;-72
2022/12/28 05:01:22;;;;;;;8.53;6.60;;;;;;;;;;5097073;28;20454;-71
2022/12/28 05:03:49;;;;;;;7.60;5.17;;;;;;;;;;5096631;28;20838;-71
2022/12/28 05:06:18;;;;;;;5.77;5.07;;;;;;;;;;5097013;28;20487;-71
2022/12/28 05:08:45;;;;;;;5.90;4.40;;;;;;;;;;5096850;28;20588;-71
2022/12/28 05:11:13;;;;;;;6.43;4.90;;;;;;;;;;5096552;28;20454;-70
2022/12/28 05:13:42;;;;;;;6.83;5.40;;;;;;;;;;5094309;28;20454;-70
2022/12/28 05:16:10;;;;;;;10.97;6.90;;;;;;;;;;5097413;28;20449;-71
2022/12/28 05:18:38;;;;;;;5.20;4.47;;;;;;;;;;5096763;28;20481;-71
2022/12/28 05:21:06;;;;;;;5.73;5.00;;;;;;;;;;5096914;28;20478;-71
2022/12/28 05:23:34;;;;;;;7.40;5.53;;;;;;;;;;5096371;28;20966;-71
2022/12/28 05:26:01;;;;;;;3.83;3.43;;;;;;;;;;5096008;28;20485;-71
2022/12/28 05:28:28;;;;;;;4.27;3.87;;;;;;;;;;5094973;28;20470;-71
2022/12/28 05:31:00;;;;;;;5.53;3.43;;;;;;;;;;5096433;28;20904;-71
2022/12/28 05:33:28;;;;;;;7.47;4.00;;;;;;;;;;5095256;28;20975;-71
2022/12/28 05:35:56;;;;;;;4.70;3.80;;;;;;;;;;5096686;28;20450;-71
2022/12/28 05:38:23;;;;;;;6.67;4.33;;;;;;;;;;5096761;28;20478;-70
2022/12/28 05:40:50;;;;;;;11.43;5.20;;;;;;;;;;5096500;28;20964;-71
2022/12/28 05:43:17;;;;;;;6.10;3.70;;;;;;;;;;5095684;28;20467;-70
2022/12/28 05:45:44;;;;;;;4.80;3.80;;;;;;;;;;5095682;28;20482;-71
2022/12/28 05:48:12;;;;;;;5.50;3.40;;;;;;;;;;5096131;28;20473;-70
2022/12/28 05:50:40;;;;;;;3.93;3.00;;;;;;;;;;5095620;28;20451;-71
2022/12/28 05:53:07;;;;;;;3.37;3.07;;;;;;;;;;5095925;28;20454;-71
2022/12/28 05:55:34;;;;;;;10.80;5.80;;;;;;;;;;5095610;28;20838;-71
2022/12/28 05:58:01;;;;;;;4.20;2.90;;;;;;;;;;5095271;28;20831;-71
2022/12/28 06:00:28;;;;;;;6.40;4.30;;;;;;;;;;5095796;28;20821;-70
2022/12/28 06:02:55;;;;;;;5.17;3.73;;;;;;;;;;5093753;28;20473;-71
2022/12/28 06:05:24;;;;;;;5.07;3.87;;;;;;;;;;5095003;28;20491;-71
2022/12/28 06:07:52;;;;;;;4.87;3.67;;;;;;;;;;5093815;28;20998;-72
2022/12/28 06:10:19;;;;;;;4.57;4.00;;;;;;;;;;5095869;28;20482;-71
2022/12/28 06:12:46;;;;;;;5.30;3.50;;;;;;;;;;5094748;28;20477;-71
2022/12/28 06:15:13;;;;;;;3.47;2.93;;;;;;;;;;5095358;28;20453;-71
2022/12/28 06:17:40;;;;;;;13.13;6.20;;;;;;;;;;5095700;28;20474;-71
2022/12/28 06:20:08;;;;;;;4.30;3.17;;;;;;;;;;5095803;28;20455;-71
2022/12/28 06:22:36;;;;;;;7.73;4.10;;;;;;;;;;5095692;28;20952;-71
2022/12/28 06:25:03;;;;;;;4.50;3.60;;;;;;;;;;5094669;28;20455;-70
2022/12/28 06:27:30;;;;;;;3.93;3.50;;;;;;;;;;5095660;28;20475;-70
2022/12/28 06:29:57;;;;;;;5.63;3.40;;;;;;;;;;5095066;28;20458;-70
2022/12/28 06:32:24;;;;;;;4.07;3.20;;;;;;;;;;5095841;28;20453;-70
2022/12/28 06:34:52;;;;;;;4.73;3.90;;;;;;;;;;5093864;28;20479;-71
2022/12/28 06:37:19;;;;;;;11.10;7.23;;;;;;;;;;5094946;28;20447;-70
2022/12/28 06:39:47;;;;;;;6.97;5.10;;;;;;;;;;5091359;28;20451;-71
2022/12/28 06:42:14;;;;;;;7.83;5.80;;;;;;;;;;5095323;28;20451;-71
2022/12/28 06:44:41;;;;;;;5.47;3.97;;;;;;;;;;5095031;28;20971;-70
2022/12/28 06:47:08;;;;;;;10.30;7.43;;;;;;;;;;5093710;28;20490;-71
2022/12/28 06:49:36;;;;;;;11.20;7.30;;;;;;;;;;5095556;28;20952;-71
2022/12/28 06:52:03;;;;;;;6.47;4.37;;;;;;;;;;5094582;28;20463;-71
2022/12/28 06:54:30;;;;;;;5.37;4.30;;;;;;;;;;5094330;28;20458;-70
2022/12/28 06:56:59;;;;;;;9.63;6.40;;;;;;;;;;5094932;28;20453;-71
2022/12/28 06:59:26;;;;;;;9.57;5.03;;;;;;;;;;5095165;28;20488;-70
2022/12/28 07:01:53;;;;;;;9.23;4.57;;;;;;;;;;5094608;28;20454;-71
2022/12/28 07:04:20;;;;;;;5.33;4.93;;;;;;;;;;5094236;28;20868;-70
2022/12/28 07:06:47;;;;;;;8.93;5.57;;;;;;;;;;5094600;28;20859;-71
2022/12/28 07:09:15;;;;;;;9.40;7.00;;;;;;;;;;5094252;28;20475;-71
2022/12/28 07:11:43;;;;;;;7.50;5.73;;;;;;;;;;5093991;28;20454;-71
2022/12/28 07:14:11;;;;;;;9.00;4.10;;;;;;;;;;5092666;28;20458;-71
2022/12/28 07:16:38;;;;;;;5.43;3.83;;;;;;;;;;5093374;28;20795;-71
2022/12/28 07:19:05;;;;;;;6.00;4.77;;;;;;;;;;5092914;28;20470;-71
2022/12/28 07:21:33;;;;;;;4.53;4.13;;;;;;;;;;5092967;28;20459;-72
2022/12/28 07:24:01;;;;;;;5.60;4.00;;;;;;;;;;5091951;28;20446;-71
2022/12/28 07:26:28;;;;;;;5.00;4.50;;;;;;;;;;5093587;28;20491;-71
2022/12/28 07:28:56;;;;;;;4.00;3.40;;;;;;;;;;5093269;28;20478;-71
2022/12/28 07:31:26;;;;;;;4.43;3.37;;;;;;;;;;5093578;28;20451;-71
2022/12/28 07:33:54;;;;;;;5.20;4.10;;;;;;;;;;5093270;28;20446;-71
2022/12/28 07:36:22;;;;;;;4.80;3.73;;;;;;;;;;5093605;28;20496;-71
2022/12/28 07:38:49;;;;;;;5.03;4.20;;;;;;;;;;5093226;28;20473;-71
2022/12/28 07:41:17;;;;;;;6.80;5.23;;;;;;;;;;5093434;28;20446;-71
2022/12/28 07:43:45;;;;;;;5.73;4.70;;;;;;;;;;5093111;28;20466;-72
2022/12/28 07:46:13;;;;;;;8.60;5.37;;;;;;;;;;5091403;28;20486;-71
2022/12/28 07:48:42;;;;;;;5.10;4.07;;;;;;;;;;5093230;28;20471;-72
2022/12/28 07:51:10;;;;;;;7.00;4.70;;;;;;;;;;5093319;28;20446;-71
2022/12/28 07:53:37;;;;;;;7.10;4.23;;;;;;;;;;5091027;28;20446;-71
2022/12/28 07:56:05;;;;;;;5.17;3.73;;;;;;;;;;5092023;28;20451;-72
2022/12/28 07:58:32;;;;;;;6.10;4.43;;;;;;;;;;5090651;28;21039;-71
2022/12/28 08:01:06;;;;;;;4.93;3.70;;;;;;;;;;5092600;28;20450;-71
2022/12/28 08:03:33;;;;;;;8.20;4.40;;;;;;;;;;5092230;28;20446;-71
2022/12/28 08:06:09;;;;;;;5.83;4.23;;;;;;;;;;5091792;28;21031;-71
2022/12/28 08:08:36;;;;;;;6.17;3.87;;;;;;;;;;5092401;28;20477;-71
2022/12/28 08:11:04;;;;;;;5.07;4.17;;;;;;;;;;5092587;28;20959;-71
2022/12/28 08:13:32;;;;;;;8.00;6.20;;;;;;;;;;5090836;28;20474;-71
2022/12/28 08:15:59;;;;;;;8.00;5.27;;;;;;;;;;5092172;28;20443;-71
2022/12/28 08:18:26;;;;;;;4.67;3.80;;;;;;;;;;5092451;28;20475;-71
2022/12/28 08:20:53;;;;;;;5.57;4.23;;;;;;;;;;5092555;28;20944;-71
2022/12/28 08:23:22;;;;;;;6.87;5.27;;;;;;;;;;5092619;28;20861;-71
2022/12/28 08:25:49;;;;;;;6.97;5.80;;;;;;;;;;5092502;28;20458;-71
2022/12/28 08:28:16;;;;;;;7.40;5.63;;;;;;;;;;5091781;28;20482;-71
2022/12/28 08:30:43;;;;;;;10.47;6.47;;;;;;;;;;5092630;28;20940;-71
2022/12/28 08:33:10;;;;;;;7.87;7.10;;;;;;;;;;5079718;28;20824;-72
2022/12/28 08:35:37;;;;;;;8.40;5.77;;;;;;;;;;5089827;28;20917;-72
2022/12/28 08:38:05;;;;;;;8.83;5.70;;;;;;;;;;5089212;28;20841;-72
2022/12/28 08:40:33;;;;;;;7.87;6.07;;;;;;;;;;5090970;28;20932;-71
2022/12/28 08:43:00;;;;;;;7.13;5.93;;;;;;;;;;5078025;28;20874;-71
2022/12/28 08:45:27;;;;;;;7.53;5.00;;;;;;;;;;5070914;28;20451;-69
2022/12/28 08:47:54;;;;;;;9.33;6.10;;;;;;;;;;5070280;28;20499;-69
2022/12/28 08:50:21;;;;;;;12.00;6.50;;;;;;;;;;5082182;28;20462;-69
2022/12/28 08:52:49;;;;;;;7.00;6.13;;;;;;;;;;5091494;28;20449;-68
2022/12/28 08:55:16;;;;;;;10.53;5.13;;;;;;;;;;5090601;28;20454;-71
2022/12/28 08:57:44;;;;;;;6.23;5.63;;;;;;;;;;5091079;28;20471;-72
2022/12/28 09:00:12;;;;;;;9.63;6.70;;;;;;;;;;5091292;28;20450;-71
2022/12/28 09:02:39;;;;;;;9.13;5.90;;;;;;;;;;5090313;28;20451;-71
2022/12/28 09:05:07;;;;;;;6.73;5.90;;;;;;;;;;5090427;28;20457;-71
2022/12/28 09:07:34;;;;;;;6.73;4.80;;;;;;;;;;5089406;28;20490;-71
2022/12/28 09:10:01;;;;;;;4.50;3.93;;;;;;;;;;5090437;28;20462;-71
2022/12/28 09:12:28;;;;;;;9.80;5.40;;;;;;;;;;5089175;28;20454;-71
2022/12/28 09:14:57;;;;;;;6.73;4.80;;;;;;;;;;5090664;28;20451;-71
2022/12/28 09:17:24;;;;;;;7.87;5.40;;;;;;;;;;5093214;28;20549;-71
2022/12/28 09:19:51;;;;;;;9.03;6.03;;;;;;;;;;5094479;28;20450;-71
2022/12/28 09:22:18;;;;;;;10.03;6.63;;;;;;;;;;5094473;28;20450;-71
2022/12/28 09:24:45;;;;;;;6.93;4.97;;;;;;;;;;5093635;28;20819;-71
2022/12/28 09:27:12;;;;;;;6.80;5.37;;;;;;;;;;5094448;28;20482;-71
2022/12/28 09:29:39;;;;;;;8.73;5.53;;;;;;;;;;5094371;28;20470;-72
2022/12/28 09:32:07;;;;;;;6.90;4.93;;;;;;;;;;5093584;28;20477;-72
2022/12/28 09:34:35;;;;;;;7.27;5.53;;;;;;;;;;5094742;28;20487;-71
2022/12/28 09:37:02;;;;;;;7.43;5.70;;;;;;;;;;5095583;28;20539;-71
2022/12/28 09:39:29;;;;;;;8.20;6.70;;;;;;;;;;5095959;28;20451;-71
2022/12/28 09:41:58;;;;;;;7.40;5.10;;;;;;;;;;5094038;28;20485;-72
2022/12/28 09:44:31;;;;;;;8.63;5.63;;;;;;;;;;5094739;28;20827;-69
2022/12/28 09:47:01;;;;;;;7.07;5.60;;;;;;;;;;5093411;28;21142;-69
2022/12/28 09:49:34;;;;;;;9.57;6.13;;;;;;;;;;5095399;28;20937;-68
2022/12/28 09:52:06;;;;;;;11.17;7.37;;;;;;;;;;5095685;28;20450;-68
2022/12/28 09:54:33;;;;;;;9.33;6.23;;;;;;;;;;5094794;28;20457;-69
2022/12/28 09:57:00;;;;;;;7.87;6.27;;;;;;;;;;5095334;28;20453;-69
2022/12/28 09:59:29;;;;;;;6.73;5.23;;;;;;;;;;5095490;28;20975;-68
2022/12/28 10:01:57;;;;;;;5.97;4.43;;;;;;;;;;5095411;28;20450;-68
2022/12/28 10:04:25;;;;;;;6.90;5.30;;;;;;;;;;5094612;28;20455;-71
2022/12/28 10:06:53;;;;;;;7.20;4.30;;;;;;;;;;5094959;28;20483;-71
2022/12/28 10:09:26;;;;;;;6.10;3.17;;;;;;;;;;5095027;28;20469;-71
2022/12/28 10:11:53;;;;;;;6.17;4.97;;;;;;;;;;5093380;28;20455;-70
2022/12/28 10:14:23;;;;;;;7.63;4.70;;;;;;;;;;5094292;28;20450;-68
2022/12/28 10:16:50;;;;;;;5.00;4.27;;;;;;;;;;5092966;28;20952;-70
2022/12/28 10:19:18;;;;;;;5.00;3.73;;;;;;;;;;5094792;28;20841;-69
2022/12/28 10:21:46;;;;;;;5.57;4.13;;;;;;;;;;5092514;28;20450;-71
2022/12/28 10:24:15;;;;;;;4.60;3.50;;;;;;;;;;5094011;28;20490;-71
2022/12/28 10:26:44;;;;;;;7.73;3.70;;;;;;;;;;5094170;28;20555;-69
2022/12/28 10:29:15;;;;;;;4.70;3.80;;;;;;;;;;5094065;28;20987;-69
2022/12/28 10:31:43;;;;;;;6.83;4.50;;;;;;;;;;5084074;28;20934;-70
2022/12/28 10:34:14;;;;;;;3.50;3.03;;;;;;;;;;5090689;28;20515;-69
2022/12/28 10:36:41;;;;;;;5.80;4.17;;;;;;;;;;5092539;28;20446;-70
2022/12/28 10:39:14;;;;;;;7.40;4.17;;;;;;;;;;5092396;28;20486;-70
2022/12/28 10:41:44;;;;;;;6.70;4.70;;;;;;;;;;5093076;28;20447;-69
2022/12/28 10:44:19;;;;;;;5.13;3.50;;;;;;;;;;5091755;28;20499;-69
2022/12/28 10:46:54;;;;;;;5.67;3.73;;;;;;;;;;5091682;28;20501;-70
2022/12/28 10:49:22;;;;;;;5.37;4.23;;;;;;;;;;5093137;28;20478;-69
2022/12/28 10:52:06;;;;;;;4.90;3.90;;;;;;;;;;5091398;28;20454;-69
2022/12/28 10:54:35;;;;;;;4.40;3.87;;;;;;;;;;5093670;28;20446;-69
2022/12/28 10:57:04;;;;;;;4.60;4.00;;;;;;;;;;5091987;28;20450;-70
2022/12/28 10:59:31;;;;;;;4.37;3.47;;;;;;;;;;5092133;28;20824;-69
2022/12/28 11:02:16;;;;;;;6.60;4.20;;;;;;;;;;5094133;28;20454;-71
2022/12/28 11:04:52;;;;;;;4.60;3.73;;;;;;;;;;5091836;28;20450;-72
2022/12/28 11:07:26;;;;;;;5.03;3.70;;;;;;;;;;5093898;28;20486;-72
2022/12/28 11:09:54;;;;;;;3.00;2.70;;;;;;;;;;5094238;28;20458;-72
2022/12/28 11:12:25;;;;;;;6.20;3.30;;;;;;;;;;5092679;28;20592;-71
2022/12/28 11:14:53;;;;;;;6.70;3.00;;;;;;;;;;5093558;28;20451;-71
2022/12/28 11:17:22;;;;;;;3.13;2.83;;;;;;;;;;5093450;28;20921;-71
2022/12/28 11:19:51;;;;;;;4.43;3.37;;;;;;;;;;5093794;28;20450;-71
2022/12/28 11:22:21;;;;;;;3.80;2.93;;;;;;;;;;5093560;28;20483;-71
2022/12/28 11:24:48;;;;;;;4.77;3.00;;;;;;;;;;5093216;28;20447;-71
2022/12/28 11:27:17;;;;;;;3.30;2.70;;;;;;;;;;5091905;28;20482;-71
2022/12/28 11:29:47;;;;;;;4.10;2.30;;;;;;;;;;5093624;28;20479;-71
2022/12/28 11:32:17;;;;;;;3.67;3.30;;;;;;;;;;5091835;28;20455;-71
2022/12/28 11:34:45;;;;;;;3.57;2.80;;;;;;;;;;5092724;28;20450;-71
2022/12/28 11:37:13;;;;;;;3.50;2.83;;;;;;;;;;5093159;28;20976;-71
2022/12/28 11:39:45;;;;;;;13.50;6.60;;;;;;;;;;5090972;28;20446;-72
2022/12/28 11:42:12;;;;;;;6.30;3.70;;;;;;;;;;5093316;28;20474;-71
2022/12/28 11:44:51;;;;;;;5.47;3.90;;;;;;;;;;5092090;28;20837;-71
2022/12/28 11:47:31;;;;;;;7.13;5.47;;;;;;;;;;5092924;28;20494;-71
2022/12/28 11:50:13;;;;;;;9.60;5.70;;;;;;;;;;5092403;28;20454;-71
2022/12/28 11:52:45;;;;;;;4.87;3.30;;;;;;;;;;5092985;28;20936;-71
2022/12/28 11:55:31;;;;;;;8.27;3.80;;;;;;;;;;5092636;28;20791;-71
2022/12/28 11:57:59;;;;;;;3.90;2.80;;;;;;;;;;5093012;28;20469;-72
2022/12/28 12:00:51;;;;;;;4.07;3.13;;;;;;;;;;5093198;28;20481;-71
2022/12/28 12:03:18;;;;;;;4.07;3.40;;;;;;;;;;5091352;28;20443;-71
2022/12/28 12:05:49;;;;;;;4.50;3.53;;;;;;;;;;5092524;28;20818;-71
2022/12/28 12:08:40;;;;;;;5.10;3.70;;;;;;;;;;5090557;28;20482;-71
2022/12/28 12:11:30;;;;;;;3.97;3.57;;;;;;;;;;5077623;28;20516;-71
2022/12/28 12:13:59;;;;;;;5.50;3.90;;;;;;;;;;5090011;28;20503;-71
2022/12/28 12:16:30;;;;;;;4.57;3.20;;;;;;;;;;5093071;28;20443;-71
2022/12/28 12:18:59;;;;;;;3.77;3.23;;;;;;;;;;5093193;28;20466;-70
2022/12/28 12:21:32;;;;;;;5.13;3.33;;;;;;;;;;5094998;28;20469;-70
2022/12/28 12:24:03;;;;;;;3.47;2.97;;;;;;;;;;5094167;28;20447;-71
2022/12/28 12:26:34;;;;;;;3.90;2.87;;;;;;;;;;5093455;28;20873;-71
2022/12/28 12:29:04;;;;;;;3.63;2.63;;;;;;;;;;5093239;28;20513;-71
2022/12/28 12:31:35;;;;;;;4.10;2.50;;;;;;;;;;5093372;28;20454;-71
2022/12/28 12:34:06;;;;;;;5.03;3.07;;;;;;;;;;5093088;28;20445;-71
2022/12/28 12:36:52;;;;;;;3.83;2.90;;;;;;;;;;5093338;28;20443;-71
2022/12/28 12:39:30;;;;;;;4.33;3.33;;;;;;;;;;5092862;28;20481;-71
2022/12/28 12:42:02;;;;;;;3.93;2.93;;;;;;;;;;5093300;28;20430;-71
2022/12/28 12:44:33;;;;;;;4.67;3.40;;;;;;;;;;5092987;28;20462;-71
2022/12/28 12:47:15;;;;;;;11.87;6.70;;;;;;;;;;5093186;28;20439;-71
2022/12/28 12:49:53;;;;;;;6.10;4.87;;;;;;;;;;5092819;28;20459;-71
2022/12/28 12:52:27;;;;;;;3.97;2.93;;;;;;;;;;5096029;28;20449;-71
2022/12/28 12:55:00;;;;;;;4.27;3.27;;;;;;;;;;5097076;28;20431;-71
2022/12/28 12:57:33;;;;;;;6.63;4.80;;;;;;;;;;5096959;28;20466;-71
2022/12/28 13:00:05;;;;;;;5.23;3.10;;;;;;;;;;5096918;28;20430;-71
2022/12/28 13:02:43;;;;;;;6.90;4.60;;;;;;;;;;5096604;28;20539;-71
2022/12/28 13:05:15;;;;;;;4.80;3.50;;;;;;;;;;5096864;28;20427;-71
2022/12/28 13:07:42;;;;;;;6.80;4.47;;;;;;;;;;5096696;28;20490;-71
2022/12/28 13:10:14;;;;;;;4.50;3.50;;;;;;;;;;5096468;28;20435;-71
2022/12/28 13:12:42;;;;;;;11.97;4.40;;;;;;;;;;5096366;28;20912;-71
2022/12/28 13:15:16;;;;;;;3.17;2.87;;;;;;;;;;5096615;28;20775;-71
2022/12/28 13:17:58;;;;;;;5.57;3.20;;;;;;;;;;5096543;28;20466;-71
2022/12/28 13:20:26;;;;;;;3.60;3.27;;;;;;;;;;5095906;28;20909;-71
2022/12/28 13:22:55;;;;;;;6.03;3.60;;;;;;;;;;5095914;28;20449;-71
2022/12/28 13:25:26;;;;;;;5.37;3.63;;;;;;;;;;5096519;28;20858;-71
2022/12/28 13:27:53;;;;;;;4.77;3.60;;;;;;;;;;5096314;28;20482;-71
2022/12/28 13:30:21;;;;;;;6.33;3.37;;;;;;;;;;5096382;28;20451;-68
2022/12/28 13:32:50;;;;;;;4.40;3.07;;;;;;;;;;5096302;28;20447;-69
2022/12/28 13:35:18;;;;;;;5.00;3.50;;;;;;;;;;5096042;28;20493;-69
2022/12/28 13:38:01;;;;;;;3.67;3.10;;;;;;;;;;5095839;28;20466;-71
2022/12/28 13:40:29;;;;;;;4.17;2.93;;;;;;;;;;5095876;28;20474;-71
2022/12/28 13:43:02;;;;;;;4.03;3.07;;;;;;;;;;5095905;28;20821;-71
2022/12/28 13:45:30;;;;;;;4.07;3.53;;;;;;;;;;5095539;28;20474;-71
2022/12/28 13:47:57;;;;;;;4.00;3.20;;;;;;;;;;5095465;28;20497;-69
2022/12/28 13:50:26;;;;;;;6.33;3.50;;;;;;;;;;5095994;28;20654;-69
2022/12/28 13:52:55;;;;;;;3.20;2.90;;;;;;;;;;5095871;28;20454;-69
2022/12/28 13:55:25;;;;;;;4.83;3.27;;;;;;;;;;5095414;28;20529;-69
2022/12/28 13:57:53;;;;;;;5.27;2.97;;;;;;;;;;5095521;28;20471;-68
2022/12/28 14:00:21;;;;;;;3.93;3.20;;;;;;;;;;5095341;28;20459;-69
2022/12/28 14:02:48;;;;;;;4.30;3.40;;;;;;;;;;5094730;28;20451;-69
2022/12/28 14:05:17;;;;;;;4.40;3.80;;;;;;;;;;5095751;28;20800;-69
2022/12/28 14:07:44;;;;;;;3.83;2.77;;;;;;;;;;5095490;28;20530;-69
2022/12/28 14:10:12;;;;;;;4.97;3.43;;;;;;;;;;5095409;28;20447;-71
2022/12/28 14:12:40;;;;;;;3.80;2.90;;;;;;;;;;5095349;28;20521;-71
2022/12/28 14:15:08;;;;;;;3.20;2.80;;;;;;;;;;5095554;28;20446;-71
2022/12/28 14:17:37;;;;;;;5.70;3.37;;;;;;;;;;5095456;28;20475;-71
2022/12/28 14:20:05;;;;;;;5.90;3.93;;;;;;;;;;5095516;28;20477;-71
2022/12/28 14:22:33;;;;;;;8.27;4.00;;;;;;;;;;5095374;28;20454;-71
2022/12/28 14:25:05;;;;;;;4.63;3.80;;;;;;;;;;5094863;28;20435;-71
2022/12/28 14:27:34;;;;;;;8.20;3.73;;;;;;;;;;5094765;28;20841;-71
2022/12/28 14:30:03;;;;;;;5.53;3.87;;;;;;;;;;5094772;28;20927;-69
2022/12/28 14:32:30;;;;;;;4.90;3.83;;;;;;;;;;5094699;28;20435;-69
2022/12/28 14:34:58;;;;;;;5.70;3.53;;;;;;;;;;5095132;28;20451;-69
2022/12/28 14:37:27;;;;;;;3.73;3.07;;;;;;;;;;5094978;28;20848;-68
2022/12/28 14:39:58;;;;;;;3.37;3.07;;;;;;;;;;5095139;28;20824;-69
2022/12/28 14:42:26;;;;;;;8.93;4.67;;;;;;;;;;5094752;28;20537;-69
2022/12/28 14:44:53;;;;;;;12.73;6.50;;;;;;;;;;5094584;28;20814;-69
2022/12/28 14:47:35;;;;;;;13.40;6.97;;;;;;;;;;5094767;28;20455;-68
2022/12/28 14:50:03;;;;;;;10.50;6.53;;;;;;;;;;5094799;28;20483;-68
2022/12/28 14:52:35;;;;;;;9.50;6.83;;;;;;;;;;5094818;28;20866;-68
2022/12/28 14:55:06;;;;;;;11.07;7.50;;;;;;;;;;5094757;28;20447;-69
2022/12/28 14:57:35;;;;;;;11.17;5.77;;;;;;;;;;5094565;28;20839;-69
2022/12/28 15:00:05;;;;;;;7.67;5.67;;;;;;;;;;5094705;28;20430;-69
2022/12/28 15:02:41;;;;;;;10.87;6.20;;;;;;;;;;5094128;28;20431;-68
2022/12/28 15:05:23;;;;;;;15.30;9.63;;;;;;;;;;5094521;28;20470;-69
2022/12/28 15:07:50;;;;;;;9.90;6.33;;;;;;;;;;5080907;28;20995;-68
2022/12/28 15:10:17;;;;;;;8.80;5.50;;;;;;;;;;5094504;28;20967;-69
2022/12/28 15:12:45;;;;;;;9.40;5.97;;;;;;;;;;5094428;28;20932;-69
2022/12/28 15:15:12;;;;;;;7.27;5.43;;;;;;;;;;5094018;28;20491;-69